createdAt,value
2022-08-14T06:37:56.857Z,19.61
2022-08-14T06:38:58.744Z,19.63
2022-08-14T06:40:00.737Z,19.30
2022-08-14T06:41:02.197Z,19.38
2022-08-14T06:42:04.132Z,19.73
2022-08-14T06:43:09.416Z,19.93
2022-08-14T06:44:10.837Z,20.16
2022-08-14T06:45:15.082Z,20.36
2022-08-14T06:46:23.279Z,20.45
2022-08-14T07:08:31.751Z,22.15
2022-08-14T07:09:40.484Z,22.14
2022-08-14T07:10:49.945Z,22.11
2022-08-14T07:11:53.266Z,22.22
2022-08-14T07:13:03.721Z,22.29
2022-08-14T07:14:06.005Z,22.27
2022-08-14T07:15:12.072Z,22.21
2022-08-14T07:16:13.787Z,22.27
2022-08-14T07:17:15.364Z,22.50
2022-08-14T07:18:25.837Z,22.49
2022-08-14T07:37:26.742Z,24.57
2022-08-14T07:38:34.030Z,24.21
2022-08-14T07:39:38.586Z,24.67
2022-08-14T07:40:40.304Z,24.69
2022-08-14T07:41:46.844Z,24.75
2022-08-14T07:42:50.337Z,25.05
2022-08-14T07:43:55.675Z,25.02
2022-08-14T07:44:57.410Z,25.24
2022-08-14T07:45:58.817Z,25.04
2022-08-14T07:47:01.468Z,25.32
2022-08-14T07:48:03.070Z,25.63
2022-08-14T08:05:52.737Z,25.42
2022-08-14T08:06:55.073Z,24.92
2022-08-14T08:07:56.473Z,24.95
2022-08-14T08:09:02.931Z,24.83
2022-08-14T08:10:46.923Z,24.34
2022-08-14T08:11:54.605Z,25.24
2022-08-14T08:13:04.301Z,25.34
2022-08-14T08:14:10.758Z,25.37
2022-08-14T08:15:19.397Z,25.18
2022-08-14T08:16:24.095Z,25.68
2022-08-14T08:17:26.193Z,26.20
2022-08-14T08:18:36.244Z,26.29
2022-08-14T08:19:39.822Z,25.91
2022-08-14T08:37:40.165Z,25.85
2022-08-14T08:39:16.743Z,26.04
2022-08-14T08:40:04.299Z,26.40
2022-08-14T08:41:09.622Z,26.07
2022-08-14T08:42:12.745Z,25.74
2022-08-14T08:43:35.548Z,26.03
2022-08-14T08:44:37.053Z,26.08
2022-08-14T08:45:39.336Z,26.64
2022-08-14T08:46:43.444Z,26.75
2022-08-14T08:47:45.554Z,26.87
2022-08-14T08:48:53.876Z,26.25
2022-08-14T08:49:59.486Z,26.05
2022-08-14T08:51:03.166Z,26.47
2022-08-14T08:52:06.478Z,26.49
2022-08-14T08:53:17.108Z,26.29
2022-08-14T09:10:28.019Z,26.31
2022-08-14T09:11:32.065Z,26.44
2022-08-14T09:12:35.088Z,26.48
2022-08-14T09:13:36.507Z,26.32
2022-08-14T09:14:40.043Z,26.37
2022-08-14T09:15:45.257Z,26.38
2022-08-14T09:16:48.450Z,26.26
2022-08-14T09:17:52.669Z,26.51
2022-08-14T09:18:56.727Z,26.94
2022-08-14T09:20:01.709Z,27.19
2022-08-14T09:21:04.248Z,26.87
2022-08-14T09:22:36.167Z,26.67
2022-08-14T09:23:34.878Z,27.36
2022-08-14T09:24:55.591Z,27.31
2022-08-14T09:26:00.831Z,27.68
2022-08-14T09:27:03.338Z,27.85
2022-08-14T09:28:09.149Z,27.48
2022-08-14T09:29:11.603Z,27.06
2022-08-14T09:30:32.303Z,27.29
2022-08-14T09:48:32.097Z,27.18
2022-08-14T09:49:40.109Z,27.45
2022-08-14T09:50:54.069Z,27.73
2022-08-14T09:52:03.725Z,27.19
2022-08-14T09:54:19.164Z,26.87
2022-08-14T09:55:22.270Z,27.24
2022-08-14T09:56:30.592Z,27.31
2022-08-14T09:57:33.467Z,27.33
2022-08-14T09:58:41.270Z,26.55
2022-08-14T09:59:46.393Z,26.56
2022-08-14T10:00:59.345Z,27.19
2022-08-14T10:02:01.081Z,27.35
2022-08-14T10:03:05.621Z,26.95
2022-08-14T10:04:35.832Z,27.12
2022-08-14T10:05:39.642Z,27.26
2022-08-14T10:06:46.611Z,27.78
2022-08-14T10:07:50.904Z,27.96
2022-08-14T10:09:03.065Z,27.85
2022-08-14T10:10:16.497Z,28.12
2022-08-14T10:28:03.929Z,28.60
2022-08-14T10:29:19.663Z,28.75
2022-08-14T10:30:36.429Z,28.76
2022-08-14T10:31:44.455Z,28.37
2022-08-14T10:32:52.225Z,29.04
2022-08-14T10:34:13.338Z,29.37
2022-08-14T10:35:16.462Z,30.00
2022-08-14T10:36:36.929Z,28.65
2022-08-14T10:37:40.912Z,27.84
2022-08-14T10:38:57.861Z,28.13
2022-08-14T10:40:10.505Z,27.66
2022-08-14T10:41:14.077Z,27.85
2022-08-14T10:42:18.400Z,28.58
2022-08-14T10:43:27.594Z,29.14
2022-08-14T10:44:43.891Z,28.82
2022-08-14T10:46:59.028Z,28.78
2022-08-14T10:47:41.385Z,29.06
2022-08-14T10:49:04.330Z,28.69
2022-08-14T10:50:07.671Z,28.25
2022-08-14T10:51:25.205Z,28.56
2022-08-14T10:52:33.973Z,28.84
2022-08-14T10:53:39.324Z,29.69
2022-08-14T10:54:47.453Z,30.58
2022-08-14T10:55:49.221Z,30.84
2022-08-14T10:56:51.941Z,29.84
2022-08-14T10:57:57.366Z,30.70
2022-08-14T10:59:08.273Z,30.17
2022-08-14T11:00:30.094Z,29.07
2022-08-14T11:01:41.374Z,28.07
2022-08-14T11:02:54.489Z,28.59
2022-08-14T11:03:57.298Z,29.22
2022-08-14T11:05:08.601Z,30.16
2022-08-14T11:06:16.284Z,30.59
2022-08-14T11:07:21.212Z,30.97
2022-08-14T11:08:33.945Z,31.03
2022-08-14T11:09:35.602Z,31.19
2022-08-14T11:29:00.126Z,30.19
2022-08-14T11:30:49.333Z,30.96
2022-08-14T11:31:35.513Z,30.22
2022-08-14T11:32:42.767Z,30.85
2022-08-14T11:33:49.044Z,31.13
2022-08-14T11:34:52.379Z,30.84
2022-08-14T11:35:53.820Z,31.63
2022-08-14T11:37:20.784Z,30.33
2022-08-14T11:38:53.786Z,30.92
2022-08-14T11:39:56.022Z,30.43
2022-08-14T11:41:00.477Z,31.27
2022-08-14T11:42:55.259Z,31.17
2022-08-14T11:43:29.550Z,30.79
2022-08-14T11:44:45.794Z,29.70
2022-08-14T11:45:49.446Z,30.17
2022-08-14T11:46:53.593Z,30.03
2022-08-14T11:48:13.032Z,29.93
2022-08-14T11:49:27.158Z,30.57
2022-08-14T11:50:38.205Z,31.05
2022-08-14T11:51:53.978Z,31.50
2022-08-14T11:52:57.256Z,30.88
2022-08-14T11:54:06.220Z,31.52
2022-08-14T11:55:12.287Z,32.11
2022-08-14T11:56:14.894Z,33.29
2022-08-14T11:57:20.336Z,33.64
2022-08-14T11:58:31.065Z,32.22
2022-08-14T11:59:33.842Z,32.80
2022-08-14T12:00:50.263Z,33.78
2022-08-14T12:01:54.882Z,33.72
2022-08-14T12:03:03.570Z,32.53
2022-08-14T12:04:32.323Z,31.86
2022-08-14T12:05:42.860Z,31.57
2022-08-14T12:06:49.676Z,30.76
2022-08-14T12:07:53.238Z,31.43
2022-08-14T12:08:56.841Z,31.81
2022-08-14T12:10:01.897Z,31.56
2022-08-14T12:11:23.370Z,32.39
2022-08-14T12:12:36.204Z,32.85
2022-08-14T12:13:37.989Z,32.15
2022-08-14T12:14:53.607Z,32.16
2022-08-14T12:16:06.368Z,31.77
2022-08-14T12:17:13.661Z,32.96
2022-08-14T12:18:19.562Z,33.96
2022-08-14T12:19:21.395Z,32.71
2022-08-14T12:20:33.825Z,32.79
2022-08-14T12:21:35.886Z,33.33
2022-08-14T12:22:43.779Z,32.01
2022-08-14T12:23:47.065Z,31.58
2022-08-14T12:24:52.124Z,32.56
2022-08-14T12:26:39.971Z,34.09
2022-08-14T12:27:46.709Z,34.42
2022-08-14T12:29:24.403Z,33.14
2022-08-14T12:30:38.120Z,33.11
2022-08-14T12:31:44.707Z,33.18
2022-08-14T12:32:48.391Z,32.70
2022-08-14T12:34:01.684Z,33.94
2022-08-14T12:35:04.907Z,34.59
2022-08-14T12:36:20.943Z,35.08
2022-08-14T12:37:30.930Z,33.47
2022-08-14T12:38:44.958Z,33.11
2022-08-14T12:39:46.657Z,33.12
2022-08-14T12:40:56.020Z,33.36
2022-08-14T12:42:06.168Z,33.30
2022-08-14T12:43:08.916Z,32.57
2022-08-14T12:44:15.963Z,32.52
2022-08-14T12:45:31.360Z,33.53
2022-08-14T12:46:36.164Z,33.08
2022-08-14T12:47:38.262Z,33.09
2022-08-14T12:48:46.328Z,32.52
2022-08-14T12:49:54.146Z,32.97
2022-08-14T12:50:59.395Z,33.06
2022-08-14T12:52:02.964Z,32.01
2022-08-14T12:53:14.346Z,31.80
2022-08-14T12:54:27.465Z,32.97
2022-08-14T12:56:18.690Z,32.84
2022-08-14T12:57:17.036Z,33.50
2022-08-14T12:58:34.908Z,33.78
2022-08-14T12:59:44.571Z,33.02
2022-08-14T13:01:14.448Z,32.76
2022-08-14T13:02:26.420Z,33.43
2022-08-14T13:03:29.613Z,33.92
2022-08-14T13:04:31.572Z,33.91
2022-08-14T13:05:37.420Z,33.08
2022-08-14T13:06:50.736Z,32.92
2022-08-14T13:07:53.129Z,33.47
2022-08-14T13:09:00.121Z,34.03
2022-08-14T13:10:34.328Z,34.52
2022-08-14T13:11:26.216Z,34.65
2022-08-14T13:12:33.158Z,34.54
2022-08-14T13:13:44.806Z,35.34
2022-08-14T13:14:48.550Z,34.86
2022-08-14T13:15:56.320Z,33.99
2022-08-14T13:17:01.750Z,34.05
2022-08-14T13:18:06.636Z,32.78
2022-08-14T13:19:16.814Z,31.70
2022-08-14T13:20:25.025Z,30.99
2022-08-14T13:21:29.795Z,31.91
2022-08-14T13:22:52.585Z,32.14
2022-08-14T13:23:55.915Z,31.14
2022-08-14T13:24:59.574Z,32.35
2022-08-14T13:26:01.284Z,32.84
2022-08-14T13:27:05.932Z,32.65
2022-08-14T13:28:12.570Z,33.45
2022-08-14T13:29:40.395Z,34.29
2022-08-14T13:30:45.354Z,34.08
2022-08-14T13:31:51.684Z,34.46
2022-08-14T13:32:58.418Z,34.55
2022-08-14T13:34:00.457Z,34.52
2022-08-14T13:35:02.904Z,34.26
2022-08-14T13:36:24.220Z,34.59
2022-08-14T13:37:32.742Z,34.72
2022-08-14T13:38:34.545Z,34.87
2022-08-14T13:39:37.546Z,35.32
2022-08-14T13:40:40.959Z,35.41
2022-08-14T13:41:44.505Z,35.12
2022-08-14T13:42:52.992Z,35.15
2022-08-14T13:43:59.539Z,35.16
2022-08-14T13:45:04.178Z,34.95
2022-08-14T13:46:05.867Z,34.17
2022-08-14T13:47:08.897Z,34.13
2022-08-14T13:48:27.213Z,34.56
2022-08-14T13:49:33.752Z,35.02
2022-08-14T13:50:36.105Z,34.98
2022-08-14T13:51:41.217Z,34.05
2022-08-14T13:52:54.841Z,33.39
2022-08-14T13:54:10.634Z,32.55
2022-08-14T13:55:15.353Z,33.25
2022-08-14T13:56:26.457Z,34.41
2022-08-14T13:57:49.938Z,34.07
2022-08-14T13:59:04.774Z,33.96
2022-08-14T14:00:13.953Z,32.03
2022-08-14T14:01:21.076Z,32.52
2022-08-14T14:02:34.060Z,33.53
2022-08-14T14:03:37.641Z,34.47
2022-08-14T14:04:46.290Z,35.04
2022-08-14T14:05:54.847Z,35.26
2022-08-14T14:07:00.972Z,35.59
2022-08-14T14:08:06.891Z,35.42
2022-08-14T14:09:11.267Z,35.86
2022-08-14T14:10:13.997Z,36.17
2022-08-14T14:11:20.876Z,35.49
2022-08-14T14:12:38.065Z,35.02
2022-08-14T14:13:45.510Z,33.78
2022-08-14T14:14:51.401Z,34.49
2022-08-14T14:15:58.855Z,34.93
2022-08-14T14:17:00.432Z,35.19
2022-08-14T14:18:02.310Z,35.30
2022-08-14T14:19:09.337Z,34.87
2022-08-14T14:20:15.263Z,33.90
2022-08-14T14:21:36.148Z,33.76
2022-08-14T14:23:01.788Z,33.15
2022-08-14T14:24:05.905Z,32.07
2022-08-14T14:25:07.785Z,31.45
2022-08-14T14:26:14.062Z,31.94
2022-08-14T14:27:39.499Z,33.50
2022-08-14T14:28:41.434Z,33.93
2022-08-14T14:29:50.535Z,32.71
2022-08-14T14:30:57.404Z,32.37
2022-08-14T14:32:00.697Z,33.04
2022-08-14T14:33:11.190Z,33.47
2022-08-14T14:34:30.113Z,33.04
2022-08-14T14:35:34.654Z,33.66
2022-08-14T14:36:43.879Z,33.94
2022-08-14T14:37:46.932Z,33.99
2022-08-14T14:38:58.417Z,32.97
2022-08-14T14:40:54.697Z,33.13
2022-08-14T14:41:38.187Z,33.29
2022-08-14T14:42:53.395Z,33.57
2022-08-14T14:43:58.760Z,32.97
2022-08-14T14:45:15.326Z,32.89
2022-08-14T14:46:21.734Z,33.16
2022-08-14T14:47:38.180Z,32.78
2022-08-14T14:48:53.795Z,33.41
2022-08-14T14:49:57.017Z,33.07
2022-08-14T14:51:01.446Z,33.73
2022-08-14T14:52:05.309Z,33.95
2022-08-14T14:53:13.187Z,34.19
2022-08-14T14:54:17.765Z,34.36
2022-08-14T14:55:20.459Z,33.84
2022-08-14T14:56:51.118Z,33.28
2022-08-14T14:57:45.331Z,33.76
2022-08-14T14:58:54.798Z,33.18
2022-08-14T14:59:56.533Z,31.79
2022-08-14T15:01:01.162Z,31.21
2022-08-14T15:02:08.139Z,32.01
2022-08-14T15:03:10.493Z,31.89
2022-08-14T15:04:19.976Z,31.62
2022-08-14T15:05:23.138Z,31.78
2022-08-14T15:06:30.397Z,31.78
2022-08-14T15:07:36.722Z,31.67
2022-08-14T15:08:56.597Z,31.61
2022-08-14T15:10:00.371Z,31.55
2022-08-14T15:11:02.181Z,32.04
2022-08-14T15:12:16.215Z,31.85
2022-08-14T15:13:26.917Z,31.86
2022-08-14T15:14:55.461Z,31.91
2022-08-14T15:15:56.847Z,32.47
2022-08-14T15:16:59.174Z,32.57
2022-08-14T15:18:01.853Z,32.94
2022-08-14T15:19:03.473Z,32.74
2022-08-14T15:20:09.685Z,32.46
2022-08-14T15:21:18.715Z,32.77
2022-08-14T15:22:20.348Z,33.07
2022-08-14T15:23:43.534Z,32.48
2022-08-14T15:24:46.839Z,32.55
2022-08-14T15:25:52.963Z,33.13
2022-08-14T15:26:57.111Z,33.46
2022-08-14T15:28:01.461Z,33.53
2022-08-14T15:29:06.078Z,33.64
2022-08-14T15:30:09.824Z,31.82
2022-08-14T15:31:12.751Z,31.23
2022-08-14T15:32:21.061Z,31.16
2022-08-14T15:34:08.263Z,31.96
2022-08-14T15:35:07.678Z,32.66
2022-08-14T15:36:25.943Z,32.81
2022-08-14T15:37:32.776Z,32.88
2022-08-14T15:38:40.973Z,32.36
2022-08-14T15:39:44.808Z,32.06
2022-08-14T15:40:51.280Z,32.54
2022-08-14T15:42:00.202Z,32.91
2022-08-14T15:43:02.101Z,33.08
2022-08-14T15:44:03.698Z,33.16
2022-08-14T15:45:11.709Z,32.95
2022-08-14T15:46:25.436Z,32.97
2022-08-14T15:47:35.018Z,33.19
2022-08-14T15:48:43.958Z,33.32
2022-08-14T15:49:46.122Z,32.99
2022-08-14T15:50:50.872Z,33.10
2022-08-14T15:51:58.044Z,32.59
2022-08-14T15:52:59.489Z,32.63
2022-08-14T15:54:01.492Z,33.00
2022-08-14T15:55:14.428Z,32.93
2022-08-14T15:56:33.207Z,32.87
2022-08-14T15:57:39.118Z,32.59
2022-08-14T15:58:53.307Z,32.49
2022-08-14T16:00:21.243Z,32.35
2022-08-14T16:01:53.628Z,32.07
2022-08-14T16:02:55.928Z,32.21
2022-08-14T16:03:57.814Z,32.20
2022-08-14T16:04:59.907Z,32.23
2022-08-14T16:06:02.042Z,32.25
2022-08-14T16:07:04.054Z,32.27
2022-08-14T16:08:27.051Z,32.28
2022-08-14T16:09:31.832Z,32.18
2022-08-14T16:10:34.139Z,32.42
2022-08-14T16:11:36.732Z,32.48
2022-08-14T16:12:46.064Z,32.37
2022-08-14T16:13:49.819Z,32.38
2022-08-14T16:30:54.938Z,31.52
2022-08-14T16:32:02.031Z,31.64
2022-08-14T16:33:27.815Z,31.60
2022-08-14T16:34:48.479Z,31.69
2022-08-14T16:35:59.570Z,31.67
2022-08-14T16:37:03.133Z,31.53
2022-08-14T16:38:19.568Z,31.24
2022-08-14T16:39:28.714Z,30.82
2022-08-14T16:40:33.723Z,30.88
2022-08-14T16:41:51.232Z,30.84
2022-08-14T16:43:04.722Z,31.00
2022-08-14T16:44:31.894Z,30.72
2022-08-14T16:45:39.161Z,30.71
2022-08-14T16:46:45.613Z,30.43
2022-08-14T17:21:31.637Z,28.48
2022-08-14T17:22:49.603Z,28.61
2022-08-14T17:23:58.133Z,28.55
2022-08-14T17:25:03.634Z,28.37
